createdAt,value
2018-07-27T00:00:52.566Z,999.78
2018-07-27T00:01:52.537Z,999.75
2018-07-27T00:02:52.525Z,999.77
2018-07-27T00:03:52.516Z,999.78
2018-07-27T00:04:52.505Z,999.75
2018-07-27T00:05:52.515Z,999.76
2018-07-27T00:06:52.492Z,999.75
2018-07-27T00:07:52.486Z,999.72
2018-07-27T00:08:52.466Z,999.74
2018-07-27T00:09:52.450Z,999.71
2018-07-27T00:10:52.461Z,999.74
2018-07-27T00:11:52.429Z,999.72
2018-07-27T00:12:52.418Z,999.73
2018-07-27T00:13:52.407Z,999.69
2018-07-27T00:14:52.396Z,999.74
2018-07-27T00:15:52.405Z,999.72
2018-07-27T00:16:52.381Z,999.71
2018-07-27T00:17:52.365Z,999.71
2018-07-27T00:18:52.354Z,999.70
2018-07-27T00:19:52.344Z,999.67
2018-07-27T00:20:52.354Z,999.70
2018-07-27T00:21:52.324Z,999.65
2018-07-27T00:22:52.311Z,999.66
2018-07-27T00:23:52.301Z,999.66
2018-07-27T00:24:52.292Z,999.64
2018-07-27T00:25:52.298Z,999.65
2018-07-27T00:26:52.269Z,999.70
2018-07-27T00:27:52.257Z,999.66
2018-07-27T00:28:52.247Z,999.70
2018-07-27T00:29:52.238Z,999.64
2018-07-27T00:30:52.244Z,999.69
2018-07-27T00:31:52.215Z,999.66
2018-07-27T00:32:52.209Z,999.65
2018-07-27T00:33:52.197Z,999.63
2018-07-27T00:34:52.183Z,999.70
2018-07-27T00:35:52.199Z,999.64
2018-07-27T00:36:52.179Z,999.67
2018-07-27T00:37:52.152Z,999.67
2018-07-27T00:38:52.141Z,999.72
2018-07-27T00:39:52.130Z,999.64
2018-07-27T00:40:52.139Z,999.66
2018-07-27T00:41:52.108Z,999.64
2018-07-27T00:42:52.101Z,999.64
2018-07-27T00:43:52.087Z,999.68
2018-07-27T00:44:52.102Z,999.65
2018-07-27T00:45:52.085Z,999.66
2018-07-27T00:46:52.059Z,999.66
2018-07-27T00:47:52.044Z,999.63
2018-07-27T00:48:52.034Z,999.61
2018-07-27T00:49:52.034Z,999.63
2018-07-27T00:50:52.038Z,999.63
2018-07-27T00:51:52.001Z,999.60
2018-07-27T00:52:51.990Z,999.60
2018-07-27T00:53:51.990Z,999.61
2018-07-27T00:54:51.969Z,999.62
2018-07-27T00:55:51.977Z,999.61
2018-07-27T00:56:51.948Z,999.63
2018-07-27T00:57:51.937Z,999.57
2018-07-27T00:58:51.928Z,999.60
2018-07-27T00:59:51.925Z,999.58
2018-07-27T01:00:51.925Z,999.54
2018-07-27T01:01:51.919Z,999.54
2018-07-27T01:02:51.897Z,999.53
2018-07-27T01:03:51.872Z,999.53
2018-07-27T01:04:51.865Z,999.51
2018-07-27T01:05:51.871Z,999.48
2018-07-27T01:06:51.840Z,999.46
2018-07-27T01:07:51.831Z,999.46
2018-07-27T01:08:51.818Z,999.45
2018-07-27T01:09:51.807Z,999.40
2018-07-27T01:10:51.817Z,999.43
2018-07-27T01:11:51.786Z,999.46
2018-07-27T01:12:51.774Z,999.43
2018-07-27T01:13:51.768Z,999.41
2018-07-27T01:14:51.759Z,999.42
2018-07-27T01:15:51.764Z,999.39
2018-07-27T01:16:51.740Z,999.39
2018-07-27T01:17:51.720Z,999.39
2018-07-27T01:18:51.709Z,999.36
2018-07-27T01:19:51.698Z,999.39
2018-07-27T01:20:51.714Z,999.36
2018-07-27T01:21:51.676Z,999.42
2018-07-27T01:22:51.667Z,999.37
2018-07-27T01:23:51.655Z,999.38
2018-07-27T01:24:51.644Z,999.36
2018-07-27T01:25:51.652Z,999.35
2018-07-27T01:26:51.622Z,999.32
2018-07-27T01:27:51.611Z,999.30
2018-07-27T01:28:51.601Z,999.30
2018-07-27T01:29:51.590Z,999.31
2018-07-27T01:30:51.598Z,999.30
2018-07-27T01:31:51.614Z,999.29
2018-07-27T01:32:51.558Z,999.27
2018-07-27T01:33:51.546Z,999.30
2018-07-27T01:34:51.535Z,999.29
2018-07-27T01:35:51.543Z,999.31
2018-07-27T01:36:51.514Z,999.30
2018-07-27T01:37:51.506Z,999.30
2018-07-27T01:38:51.493Z,999.29
2018-07-27T01:39:51.487Z,999.32
2018-07-27T01:40:51.497Z,999.26
2018-07-27T01:41:51.459Z,999.26
2018-07-27T01:42:51.446Z,999.25
2018-07-27T01:43:51.448Z,999.27
2018-07-27T01:44:51.426Z,999.22
2018-07-27T01:45:51.432Z,999.24
2018-07-27T01:46:51.403Z,999.25
2018-07-27T01:47:51.392Z,999.23
2018-07-27T01:48:51.380Z,999.23
2018-07-27T01:49:51.371Z,999.23
2018-07-27T01:50:51.382Z,999.22
2018-07-27T01:51:51.348Z,999.22
2018-07-27T01:52:51.349Z,999.21
2018-07-27T01:53:51.329Z,999.18
2018-07-27T01:54:51.314Z,999.21
2018-07-27T01:55:51.342Z,999.14
2018-07-27T01:56:51.292Z,999.26
2018-07-27T01:57:51.284Z,999.19
2018-07-27T01:58:51.269Z,999.17
2018-07-27T01:59:51.259Z,999.20
2018-07-27T02:00:51.274Z,999.18
2018-07-27T02:01:51.236Z,999.18
2018-07-27T02:02:51.226Z,999.14
2018-07-27T02:03:51.217Z,999.18
2018-07-27T02:04:51.203Z,999.16
2018-07-27T02:05:51.208Z,999.19
2018-07-27T02:06:51.201Z,999.19
2018-07-27T02:07:51.171Z,999.08
2018-07-27T02:08:51.164Z,999.14
2018-07-27T02:09:51.152Z,999.10
2018-07-27T02:10:51.142Z,999.12
2018-07-27T02:11:51.151Z,999.12
2018-07-27T02:12:51.115Z,999.14
2018-07-27T02:13:51.103Z,999.17
2018-07-27T02:14:51.101Z,999.17
2018-07-27T02:15:51.084Z,999.17
2018-07-27T02:16:51.092Z,999.14
2018-07-27T02:17:51.059Z,999.16
2018-07-27T02:18:51.049Z,999.16
2018-07-27T02:19:51.038Z,999.13
2018-07-27T02:20:51.028Z,999.15
2018-07-27T02:21:51.049Z,999.15
2018-07-27T02:22:51.006Z,999.11
2018-07-27T02:23:50.996Z,999.13
2018-07-27T02:24:50.984Z,999.14
2018-07-27T02:25:50.975Z,999.06
2018-07-27T02:26:50.981Z,999.07
2018-07-27T02:27:50.952Z,999.07
2018-07-27T02:28:50.940Z,999.08
2018-07-27T02:29:50.944Z,999.07
2018-07-27T02:30:50.929Z,999.03
2018-07-27T02:31:50.928Z,999.05
2018-07-27T02:32:50.905Z,999.00
2018-07-27T02:33:50.996Z,999.04
2018-07-27T02:34:50.877Z,999.04
2018-07-27T02:35:50.864Z,999.02
2018-07-27T02:36:50.878Z,998.96
2018-07-27T02:37:50.845Z,999.01
2018-07-27T02:38:50.845Z,998.97
2018-07-27T02:39:50.851Z,999.00
2018-07-27T02:40:50.811Z,998.98
2018-07-27T02:41:50.824Z,998.95
2018-07-27T02:42:50.789Z,998.97
2018-07-27T02:43:50.778Z,999.00
2018-07-27T02:44:50.769Z,998.95
2018-07-27T02:45:50.757Z,998.98
2018-07-27T02:46:50.764Z,998.97
2018-07-27T02:47:50.734Z,999.01
2018-07-27T02:48:50.723Z,998.97
2018-07-27T02:49:50.714Z,998.92
2018-07-27T02:50:50.703Z,998.98
2018-07-27T02:51:50.713Z,998.96
2018-07-27T02:52:50.682Z,998.94
2018-07-27T02:53:50.671Z,998.97
2018-07-27T02:54:50.662Z,998.93
2018-07-27T02:55:50.651Z,998.94
2018-07-27T02:56:50.660Z,998.89
2018-07-27T02:57:50.647Z,998.88
2018-07-27T02:58:50.616Z,998.93
2018-07-27T02:59:50.609Z,998.93
2018-07-27T03:00:50.594Z,998.88
2018-07-27T03:01:50.605Z,998.88
2018-07-27T03:02:50.572Z,998.90
2018-07-27T03:03:50.568Z,998.88
2018-07-27T03:04:50.551Z,998.91
2018-07-27T03:05:50.541Z,998.91
2018-07-27T03:06:50.548Z,998.90
2018-07-27T03:07:50.522Z,998.88
2018-07-27T03:08:50.507Z,998.87
2018-07-27T03:09:50.573Z,998.88
2018-07-27T03:10:50.486Z,998.85
2018-07-27T03:11:50.494Z,998.87
2018-07-27T03:12:50.463Z,998.88
2018-07-27T03:13:50.472Z,998.86
2018-07-27T03:14:50.448Z,998.80
2018-07-27T03:15:50.450Z,998.85
2018-07-27T03:16:50.444Z,998.87
2018-07-27T03:17:50.409Z,998.83
2018-07-27T03:18:50.415Z,998.85
2018-07-27T03:19:50.398Z,998.93
2018-07-27T03:20:50.377Z,998.88
2018-07-27T03:21:50.411Z,998.87
2018-07-27T03:22:50.358Z,998.90
2018-07-27T03:23:50.349Z,998.91
2018-07-27T03:24:50.352Z,998.89
2018-07-27T03:25:50.323Z,998.89
2018-07-27T03:26:50.333Z,998.88
2018-07-27T03:27:50.302Z,998.90
2018-07-27T03:28:50.295Z,998.92
2018-07-27T03:29:50.281Z,998.91
2018-07-27T03:30:50.285Z,998.91
2018-07-27T03:31:50.323Z,998.89
2018-07-27T03:32:50.249Z,998.89
2018-07-27T03:33:50.239Z,998.96
2018-07-27T03:34:50.229Z,998.96
2018-07-27T03:35:50.230Z,998.94
2018-07-27T03:36:50.207Z,998.99
2018-07-27T03:37:50.218Z,998.95
2018-07-27T03:38:50.186Z,998.91
2018-07-27T03:39:50.187Z,998.94
2018-07-27T03:40:50.167Z,998.92
2018-07-27T03:41:50.180Z,998.90
2018-07-27T03:42:50.171Z,998.93
2018-07-27T03:43:50.174Z,998.95
2018-07-27T03:44:50.123Z,998.95
2018-07-27T03:45:50.111Z,998.92
2018-07-27T03:46:50.100Z,998.91
2018-07-27T03:47:50.089Z,998.90
2018-07-27T03:48:50.101Z,998.91
2018-07-27T03:49:50.071Z,998.89
2018-07-27T03:50:50.084Z,998.89
2018-07-27T03:51:50.050Z,998.91
2018-07-27T03:52:50.041Z,998.89
2018-07-27T03:53:50.044Z,998.88
2018-07-27T03:54:50.030Z,998.89
2018-07-27T03:55:50.008Z,998.92
2018-07-27T03:56:49.996Z,998.85
2018-07-27T03:57:49.985Z,998.88
2018-07-27T03:58:49.991Z,998.84
2018-07-27T03:59:49.964Z,998.86
2018-07-27T04:00:49.952Z,998.84
2018-07-27T04:01:49.943Z,998.84
2018-07-27T04:02:49.940Z,998.86
2018-07-27T04:03:49.952Z,998.87
2018-07-27T04:04:49.909Z,998.87
2018-07-27T04:05:49.896Z,998.87
2018-07-27T04:06:49.917Z,998.84
2018-07-27T04:07:49.875Z,998.87
2018-07-27T04:08:49.893Z,998.84
2018-07-27T04:09:49.855Z,998.84
2018-07-27T04:10:49.842Z,998.86
2018-07-27T04:11:49.831Z,998.85
2018-07-27T04:12:49.823Z,998.85
2018-07-27T04:13:49.826Z,998.85
2018-07-27T04:14:49.865Z,998.86
2018-07-27T04:15:49.796Z,998.86
2018-07-27T04:16:49.808Z,998.90
2018-07-27T04:17:49.786Z,998.87
2018-07-27T04:18:49.756Z,998.88
2018-07-27T04:19:49.766Z,998.90
2018-07-27T04:20:49.733Z,998.92
2018-07-27T04:21:49.731Z,998.92
2018-07-27T04:22:49.724Z,998.93
2018-07-27T04:23:49.708Z,998.92
2018-07-27T04:24:49.729Z,998.91
2018-07-27T04:25:49.680Z,998.90
2018-07-27T04:26:49.669Z,998.92
2018-07-27T04:27:49.668Z,998.91
2018-07-27T04:28:49.650Z,998.89
2018-07-27T04:29:49.638Z,998.87
2018-07-27T04:30:49.647Z,998.85
2018-07-27T04:31:49.631Z,998.94
2018-07-27T04:32:49.605Z,998.90
2018-07-27T04:33:49.592Z,998.87
2018-07-27T04:34:49.585Z,998.92
2018-07-27T04:35:49.601Z,998.93
2018-07-27T04:36:49.570Z,998.92
2018-07-27T04:37:49.550Z,998.92
2018-07-27T04:38:49.539Z,998.92
2018-07-27T04:39:49.568Z,998.95
2018-07-27T04:40:49.537Z,998.87
2018-07-27T04:41:49.506Z,998.89
2018-07-27T04:42:49.520Z,998.89
2018-07-27T04:43:49.486Z,998.92
2018-07-27T04:44:49.478Z,998.92
2018-07-27T04:45:49.493Z,998.91
2018-07-27T04:46:49.455Z,998.92
2018-07-27T04:47:49.446Z,998.93
2018-07-27T04:48:49.435Z,998.91
2018-07-27T04:49:49.420Z,998.92
2018-07-27T04:50:49.427Z,998.94
2018-07-27T04:51:49.398Z,998.92
2018-07-27T04:52:49.387Z,998.93
2018-07-27T04:53:49.386Z,998.95
2018-07-27T04:54:49.374Z,998.90
2018-07-27T04:55:49.381Z,998.93
2018-07-27T04:56:49.357Z,998.93
2018-07-27T04:57:49.334Z,998.94
2018-07-27T04:58:49.329Z,998.91
2018-07-27T04:59:49.318Z,998.91
2018-07-27T05:00:49.358Z,998.95
2018-07-27T05:01:49.305Z,998.95
2018-07-27T05:02:49.290Z,999.01
2018-07-27T05:03:49.282Z,999.04
2018-07-27T05:04:49.281Z,998.98
2018-07-27T05:05:49.313Z,999.00
2018-07-27T05:06:49.284Z,999.00
2018-07-27T05:07:49.230Z,999.02
2018-07-27T05:08:49.221Z,999.01
2018-07-27T05:09:49.226Z,999.06
2018-07-27T05:10:49.195Z,999.08
2018-07-27T05:11:49.265Z,999.08
2018-07-27T05:12:49.175Z,999.05
2018-07-27T05:13:49.163Z,999.06
2018-07-27T05:14:49.152Z,999.09
2018-07-27T05:15:49.151Z,999.04
2018-07-27T05:16:49.163Z,999.07
2018-07-27T05:17:49.122Z,999.09
2018-07-27T05:18:49.109Z,999.09
2018-07-27T05:19:49.097Z,999.08
2018-07-27T05:20:49.086Z,999.05
2018-07-27T05:21:49.093Z,999.04
2018-07-27T05:22:49.064Z,999.02
2018-07-27T05:23:49.055Z,999.05
2018-07-27T05:24:49.047Z,999.05
2018-07-27T05:25:49.035Z,999.06
2018-07-27T05:26:49.044Z,999.04
2018-07-27T05:27:49.010Z,999.03
2018-07-27T05:28:49.024Z,999.02
2018-07-27T05:29:48.989Z,999.06
2018-07-27T05:30:48.979Z,999.03
2018-07-27T05:31:49.006Z,999.03
2018-07-27T05:32:48.964Z,999.05
2018-07-27T05:33:48.965Z,999.01
2018-07-27T05:34:48.938Z,999.06
2018-07-27T05:35:48.924Z,999.06
2018-07-27T05:36:48.932Z,999.00
2018-07-27T05:37:48.904Z,999.00
2018-07-27T05:38:48.904Z,999.03
2018-07-27T05:39:48.883Z,999.00
2018-07-27T05:40:48.869Z,998.98
2018-07-27T05:41:48.878Z,998.97
2018-07-27T05:42:48.852Z,999.02
2018-07-27T05:43:48.849Z,998.98
2018-07-27T05:44:48.828Z,999.03
2018-07-27T05:45:48.820Z,999.04
2018-07-27T05:46:48.866Z,999.03
2018-07-27T05:47:48.824Z,999.04
2018-07-27T05:48:48.796Z,999.07
2018-07-27T05:49:48.776Z,999.07
2018-07-27T05:50:48.782Z,999.07
2018-07-27T05:51:48.788Z,999.11
2018-07-27T05:52:48.756Z,999.08
2018-07-27T05:53:48.754Z,999.07
2018-07-27T05:54:48.724Z,999.12
2018-07-27T05:55:48.718Z,999.09
2018-07-27T05:56:48.726Z,999.10
2018-07-27T05:57:48.692Z,999.12
2018-07-27T05:58:48.677Z,999.09
2018-07-27T05:59:48.676Z,999.11
2018-07-27T06:00:48.655Z,999.11
2018-07-27T06:01:48.645Z,999.08
2018-07-27T06:02:48.673Z,999.08
2018-07-27T06:03:48.623Z,999.08
2018-07-27T06:04:48.661Z,999.05
2018-07-27T06:05:48.601Z,999.07
2018-07-27T06:06:48.594Z,999.07
2018-07-27T06:07:48.620Z,999.09
2018-07-27T06:08:48.606Z,999.11
2018-07-27T06:09:48.565Z,999.10
2018-07-27T06:10:48.580Z,999.08
2018-07-27T06:11:48.541Z,999.10
2018-07-27T06:12:48.549Z,999.08
2018-07-27T06:13:48.518Z,999.08
2018-07-27T06:14:48.512Z,999.08
2018-07-27T06:15:48.495Z,999.06
2018-07-27T06:16:48.485Z,999.10
2018-07-27T06:17:48.574Z,999.08
2018-07-27T06:18:48.463Z,999.07
2018-07-27T06:19:48.452Z,999.10
2018-07-27T06:20:48.443Z,999.04
2018-07-27T06:21:48.435Z,999.07
2018-07-27T06:22:48.444Z,999.01
2018-07-27T06:23:48.461Z,999.08
2018-07-27T06:24:48.428Z,999.04
2018-07-27T06:25:48.400Z,999.07
2018-07-27T06:26:48.378Z,999.06
2018-07-27T06:27:48.426Z,999.04
2018-07-27T06:28:48.374Z,999.05
2018-07-27T06:29:48.374Z,999.06
2018-07-27T06:30:48.335Z,999.02
2018-07-27T06:31:48.328Z,999.06
2018-07-27T06:32:48.334Z,999.11
2018-07-27T06:33:48.320Z,999.08
2018-07-27T06:34:48.300Z,999.11
2018-07-27T06:35:48.285Z,999.13
2018-07-27T06:36:48.285Z,999.13
2018-07-27T06:37:48.285Z,999.14
2018-07-27T06:38:48.284Z,999.15
2018-07-27T06:39:48.278Z,999.13
2018-07-27T06:40:48.228Z,999.16
2018-07-27T06:41:48.217Z,999.16
2018-07-27T06:42:48.227Z,999.15
2018-07-27T06:43:48.196Z,999.11
2018-07-27T06:44:48.193Z,999.11
2018-07-27T06:45:48.177Z,999.11
2018-07-27T06:46:48.166Z,999.11
2018-07-27T06:47:48.175Z,999.16
2018-07-27T06:48:48.148Z,999.14
2018-07-27T06:49:48.137Z,999.12
2018-07-27T06:50:48.143Z,999.18
2018-07-27T06:51:48.110Z,999.20
2018-07-27T06:52:48.118Z,999.17
2018-07-27T06:53:48.089Z,999.19
2018-07-27T06:54:48.079Z,999.18
2018-07-27T06:55:48.067Z,999.21
2018-07-27T06:56:48.057Z,999.22
2018-07-27T06:57:48.067Z,999.20
2018-07-27T06:58:48.034Z,999.17
2018-07-27T06:59:48.028Z,999.19
2018-07-27T07:00:48.038Z,999.15
2018-07-27T07:01:48.002Z,999.20
2018-07-27T07:02:48.012Z,999.16
2018-07-27T07:03:47.982Z,999.16
2018-07-27T07:04:47.972Z,999.15
2018-07-27T07:05:47.964Z,999.13
2018-07-27T07:06:47.959Z,999.15
2018-07-27T07:07:47.967Z,999.15
2018-07-27T07:08:47.928Z,999.11
2018-07-27T07:09:47.919Z,999.09
2018-07-27T07:10:47.910Z,999.16
2018-07-27T07:11:47.929Z,999.11
2018-07-27T07:12:47.887Z,999.11
2018-07-27T07:13:47.895Z,999.12
2018-07-27T07:14:47.863Z,999.11
2018-07-27T07:15:47.865Z,999.11
2018-07-27T07:16:47.841Z,999.12
2018-07-27T07:17:47.833Z,999.10
2018-07-27T07:18:47.840Z,999.11
2018-07-27T07:19:47.842Z,999.11
2018-07-27T07:20:47.800Z,999.12
2018-07-27T07:21:47.793Z,999.10
2018-07-27T07:22:47.806Z,999.12
2018-07-27T07:23:47.860Z,999.17
2018-07-27T07:24:47.779Z,999.12
2018-07-27T07:25:47.988Z,999.16
2018-07-27T07:26:47.736Z,999.21
2018-07-27T07:27:47.725Z,999.16
2018-07-27T07:28:47.721Z,999.18
2018-07-27T07:29:47.723Z,999.19
2018-07-27T07:30:47.712Z,999.15
2018-07-27T07:31:47.695Z,999.16
2018-07-27T07:32:47.677Z,999.19
2018-07-27T07:33:47.665Z,999.15
2018-07-27T07:34:47.671Z,999.20
2018-07-27T07:35:47.642Z,999.16
2018-07-27T07:36:47.633Z,999.17
2018-07-27T07:37:47.621Z,999.15
2018-07-27T07:38:47.610Z,999.14
2018-07-27T07:39:47.619Z,999.13
2018-07-27T07:40:47.590Z,999.12
2018-07-27T07:41:47.593Z,999.08
2018-07-27T07:42:47.572Z,999.05
2018-07-27T07:43:47.576Z,999.08
2018-07-27T07:44:47.574Z,999.06
2018-07-27T07:45:47.545Z,999.09
2018-07-27T07:46:47.524Z,999.07
2018-07-27T07:47:47.517Z,999.08
2018-07-27T07:48:47.504Z,999.07
2018-07-27T07:49:47.501Z,999.09
2018-07-27T07:50:47.508Z,999.12
2018-07-27T07:51:47.474Z,999.12
2018-07-27T07:52:47.463Z,999.04
2018-07-27T07:53:47.490Z,999.07
2018-07-27T07:54:47.438Z,999.08
2018-07-27T07:55:47.447Z,999.07
2018-07-27T07:56:47.416Z,999.06
2018-07-27T07:57:47.409Z,999.05
2018-07-27T07:58:47.414Z,999.04
2018-07-27T07:59:47.383Z,999.06
2018-07-27T08:00:47.394Z,999.04
2018-07-27T08:01:47.362Z,999.05
2018-07-27T08:02:47.355Z,999.04
2018-07-27T08:03:47.351Z,998.97
2018-07-27T08:04:47.331Z,999.00
2018-07-27T08:05:47.350Z,999.00
2018-07-27T08:06:47.308Z,999.03
2018-07-27T08:07:47.297Z,999.01
2018-07-27T08:08:47.300Z,998.99
2018-07-27T08:09:47.276Z,998.94
2018-07-27T08:10:47.306Z,998.98
2018-07-27T08:11:47.338Z,998.96
2018-07-27T08:12:47.305Z,998.98
2018-07-27T08:13:47.339Z,999.02
2018-07-27T08:14:47.267Z,998.90
2018-07-27T08:15:47.252Z,998.97
2018-07-27T08:16:47.400Z,999.00
2018-07-27T08:17:47.318Z,998.94
2018-07-27T08:18:47.252Z,998.85
2018-07-27T08:19:47.187Z,998.85
2018-07-27T08:20:47.175Z,998.88
2018-07-27T08:21:47.170Z,998.87
2018-07-27T08:22:47.142Z,998.86
2018-07-27T08:23:47.143Z,998.87
2018-07-27T08:24:47.120Z,998.88
2018-07-27T08:25:47.110Z,998.92
2018-07-27T08:26:47.136Z,998.92
2018-07-27T08:27:47.111Z,999.04
2018-07-27T08:28:47.077Z,999.12
2018-07-27T08:29:47.067Z,999.20
2018-07-27T08:30:47.085Z,999.21
2018-07-27T08:31:47.065Z,999.27
2018-07-27T08:32:47.064Z,999.30
2018-07-27T08:33:47.025Z,999.30
2018-07-27T08:34:47.030Z,999.29
2018-07-27T08:35:47.027Z,999.37
2018-07-27T08:36:47.002Z,999.37
2018-07-27T08:37:47.010Z,999.42
2018-07-27T08:38:46.987Z,999.45
2018-07-27T08:39:47.026Z,999.33
2018-07-27T08:40:46.955Z,999.36
2018-07-27T08:41:46.972Z,999.30
2018-07-27T08:42:46.938Z,999.29
2018-07-27T08:43:46.949Z,999.27
2018-07-27T08:44:46.917Z,999.17
2018-07-27T08:45:46.906Z,999.09
2018-07-27T08:46:46.896Z,999.08
2018-07-27T08:47:46.913Z,999.08
2018-07-27T08:48:46.914Z,999.04
2018-07-27T08:49:46.874Z,998.95
2018-07-27T08:50:46.858Z,998.97
2018-07-27T08:51:46.858Z,998.99
2018-07-27T08:52:46.860Z,998.96
2018-07-27T08:53:46.894Z,998.93
2018-07-27T08:54:46.829Z,998.92
2018-07-27T08:55:46.812Z,998.96
2018-07-27T08:56:46.822Z,998.92
2018-07-27T08:57:46.792Z,998.87
2018-07-27T08:58:46.792Z,998.92
2018-07-27T08:59:46.771Z,998.94
2018-07-27T09:00:46.768Z,998.91
2018-07-27T09:01:46.761Z,998.87
2018-07-27T09:02:46.801Z,998.84
2018-07-27T09:03:46.788Z,998.87
2018-07-27T09:04:46.723Z,998.85
2018-07-27T09:05:46.726Z,998.85
2018-07-27T09:06:46.703Z,998.88
2018-07-27T09:07:46.715Z,998.89
2018-07-27T09:08:46.684Z,998.86
2018-07-27T09:09:46.674Z,998.83
2018-07-27T09:10:46.666Z,998.85
2018-07-27T09:11:46.656Z,998.89
2018-07-27T09:12:46.681Z,998.90
2018-07-27T09:13:46.676Z,998.98
2018-07-27T09:14:46.629Z,999.04
2018-07-27T09:15:46.617Z,999.10
2018-07-27T09:16:46.606Z,999.18
2018-07-27T09:17:46.617Z,999.22
2018-07-27T09:18:46.592Z,999.26
2018-07-27T09:19:46.587Z,999.28
2018-07-27T09:20:46.570Z,999.28
2018-07-27T09:21:46.573Z,999.26
2018-07-27T09:22:46.568Z,999.28
2018-07-27T09:23:46.550Z,999.29
2018-07-27T09:24:46.686Z,999.34
2018-07-27T09:25:46.529Z,999.32
2018-07-27T09:26:46.515Z,999.27
2018-07-27T09:27:46.531Z,999.28
2018-07-27T09:28:46.497Z,999.25
2018-07-27T09:29:46.497Z,999.22
2018-07-27T09:30:46.491Z,999.21
2018-07-27T09:31:46.466Z,999.14
2018-07-27T09:32:46.464Z,998.95
2018-07-27T09:33:46.471Z,998.88
2018-07-27T09:34:46.437Z,998.72
2018-07-27T09:35:46.430Z,998.62
2018-07-27T09:36:46.418Z,998.63
2018-07-27T09:37:46.414Z,998.57
2018-07-27T09:38:46.399Z,998.56
2018-07-27T09:39:46.391Z,998.51
2018-07-27T09:40:46.380Z,998.46
2018-07-27T09:41:46.369Z,998.46
2018-07-27T09:42:46.362Z,998.44
2018-07-27T09:43:46.353Z,998.38
2018-07-27T09:44:46.345Z,998.32
2018-07-27T09:45:46.330Z,998.41
2018-07-27T09:46:46.356Z,998.37
2018-07-27T09:47:46.356Z,998.35
2018-07-27T09:48:46.323Z,998.36
2018-07-27T09:49:46.298Z,998.37
2018-07-27T09:50:46.280Z,998.39
2018-07-27T09:51:46.357Z,998.34
2018-07-27T09:52:46.319Z,998.31
2018-07-27T09:53:46.280Z,998.33
2018-07-27T09:54:46.240Z,998.31
2018-07-27T09:55:46.232Z,998.30
2018-07-27T09:56:46.225Z,998.26
2018-07-27T09:57:46.279Z,998.24
2018-07-27T09:58:46.247Z,998.21
2018-07-27T09:59:46.190Z,998.19
2018-07-27T10:00:46.185Z,998.18
2018-07-27T10:01:46.202Z,998.20
2018-07-27T10:02:46.166Z,998.21
2018-07-27T10:03:46.153Z,998.16
2018-07-27T10:04:46.140Z,998.16
2018-07-27T10:05:46.182Z,998.18
2018-07-27T10:06:46.124Z,998.20
2018-07-27T10:07:46.137Z,998.18
2018-07-27T10:08:46.116Z,998.19
2018-07-27T10:09:46.090Z,998.15
2018-07-27T10:10:46.077Z,998.16
2018-07-27T10:11:46.068Z,998.25
2018-07-27T10:12:46.112Z,998.19
2018-07-27T10:13:46.075Z,998.17
2018-07-27T10:14:46.046Z,998.21
2018-07-27T10:15:46.027Z,998.13
2018-07-27T10:16:46.022Z,998.14
2018-07-27T10:17:46.006Z,998.11
2018-07-27T10:18:45.995Z,998.06
2018-07-27T10:19:45.987Z,998.00
2018-07-27T10:20:45.974Z,998.02
2018-07-27T10:21:45.966Z,998.03
2018-07-27T10:22:45.961Z,998.00
2018-07-27T10:23:45.960Z,997.96
2018-07-27T10:24:45.992Z,997.95
2018-07-27T10:25:45.938Z,997.91
2018-07-27T10:26:45.912Z,997.94
2018-07-27T10:27:45.901Z,997.94
2018-07-27T10:28:45.890Z,997.93
2018-07-27T10:29:45.883Z,997.98
2018-07-27T10:30:45.868Z,997.96
2018-07-27T10:31:45.875Z,997.97
2018-07-27T10:32:45.851Z,997.96
2018-07-27T10:33:45.838Z,997.90
2018-07-27T10:34:45.830Z,997.90
2018-07-27T10:35:45.820Z,997.83
2018-07-27T10:36:45.822Z,997.85
2018-07-27T10:37:46.009Z,997.79
2018-07-27T10:38:45.794Z,997.81
2018-07-27T10:39:45.844Z,997.78
2018-07-27T10:40:45.764Z,997.82
2018-07-27T10:41:45.752Z,997.74
2018-07-27T10:42:45.832Z,997.79
2018-07-27T10:43:45.748Z,997.76
2018-07-27T10:44:45.732Z,997.72
2018-07-27T10:45:45.713Z,997.77
2018-07-27T10:46:45.714Z,997.68
2018-07-27T10:47:45.696Z,997.77
2018-07-27T10:48:45.697Z,997.77
2018-07-27T10:49:45.669Z,997.82
2018-07-27T10:50:45.662Z,997.84
2018-07-27T10:51:45.676Z,997.80
2018-07-27T10:52:45.642Z,997.86
2018-07-27T10:53:45.630Z,997.81
2018-07-27T10:54:45.617Z,997.76
2018-07-27T10:55:45.613Z,997.72
2018-07-27T10:56:45.596Z,997.63
2018-07-27T10:57:45.585Z,997.68
2018-07-27T10:58:45.576Z,997.50
2018-07-27T10:59:45.566Z,997.69
2018-07-27T11:00:45.581Z,997.72
2018-07-27T11:01:45.548Z,997.66
2018-07-27T11:02:45.786Z,997.66
2018-07-27T11:03:45.524Z,997.65
2018-07-27T11:04:45.543Z,997.62
2018-07-27T11:05:45.504Z,997.62
2018-07-27T11:06:45.498Z,997.66
2018-07-27T11:07:45.483Z,997.65
2018-07-27T11:08:45.478Z,997.60
2018-07-27T11:09:45.472Z,997.55
2018-07-27T11:10:45.481Z,997.58
2018-07-27T11:11:45.451Z,997.53
2018-07-27T11:12:45.432Z,997.54
2018-07-27T11:13:45.423Z,997.57
2018-07-27T11:14:45.416Z,997.61
2018-07-27T11:15:45.402Z,997.72
2018-07-27T11:16:45.404Z,998.00
2018-07-27T11:17:45.453Z,998.21
2018-07-27T11:18:45.374Z,998.29
2018-07-27T11:19:45.368Z,998.32
2018-07-27T11:20:45.353Z,998.37
2018-07-27T11:21:45.364Z,998.45
2018-07-27T11:22:45.335Z,998.44
2018-07-27T11:23:45.325Z,998.52
2018-07-27T11:24:45.318Z,998.47
2018-07-27T11:25:45.309Z,998.51
2018-07-27T11:26:45.326Z,998.45
2018-07-27T11:27:45.290Z,998.45
2018-07-27T11:28:45.285Z,998.39
2018-07-27T11:29:45.278Z,998.22
2018-07-27T11:30:45.281Z,998.50
2018-07-27T11:31:45.340Z,998.53
2018-07-27T11:32:45.291Z,998.55
2018-07-27T11:33:45.262Z,998.61
2018-07-27T11:34:45.237Z,998.56
2018-07-27T11:35:45.231Z,998.65
2018-07-27T11:36:45.232Z,998.62
2018-07-27T11:37:45.215Z,998.63
2018-07-27T11:38:45.220Z,998.67
2018-07-27T11:39:45.197Z,998.65
2018-07-27T11:40:45.189Z,998.63
2018-07-27T11:41:45.208Z,998.67
2018-07-27T11:42:45.180Z,998.68
2018-07-27T11:43:45.175Z,998.64
2018-07-27T11:44:45.163Z,998.64
2018-07-27T11:45:45.162Z,998.65
2018-07-27T11:46:45.180Z,998.68
2018-07-27T11:47:45.176Z,998.67
2018-07-27T11:48:45.129Z,998.64
2018-07-27T11:49:45.125Z,998.64
2018-07-27T11:50:45.119Z,998.61
2018-07-27T11:51:45.139Z,998.67
2018-07-27T11:52:45.105Z,998.56
2018-07-27T11:53:45.101Z,998.61
2018-07-27T11:54:45.090Z,998.63
2018-07-27T11:55:45.113Z,998.58
2018-07-27T11:56:45.103Z,998.51
2018-07-27T11:57:45.066Z,998.54
2018-07-27T11:58:45.084Z,998.56
2018-07-27T11:59:45.061Z,998.53
2018-07-27T12:00:45.048Z,998.59
2018-07-27T12:01:45.119Z,998.54
2018-07-27T12:02:45.038Z,998.50
2018-07-27T12:03:45.042Z,998.46
2018-07-27T12:04:45.021Z,998.49
2018-07-27T12:05:45.079Z,998.44
2018-07-27T12:06:45.023Z,998.38
2018-07-27T12:07:45.003Z,998.35
2018-07-27T12:08:44.995Z,998.35
2018-07-27T12:09:45.044Z,998.37
2018-07-27T12:10:45.000Z,998.30
2018-07-27T12:11:44.991Z,998.35
2018-07-27T12:12:44.986Z,998.32
2018-07-27T12:13:45.035Z,998.35
2018-07-27T12:14:45.029Z,998.31
2018-07-27T12:15:44.945Z,998.33
2018-07-27T12:16:44.942Z,998.31
2018-07-27T12:17:44.935Z,998.31
2018-07-27T12:18:44.933Z,998.25
2018-07-27T12:19:44.927Z,998.21
2018-07-27T12:20:45.021Z,998.20
2018-07-27T12:21:45.286Z,998.19
2018-07-27T12:22:44.910Z,998.19
2018-07-27T12:23:44.895Z,998.19
2018-07-27T12:24:44.928Z,998.26
2018-07-27T12:25:44.890Z,998.26
2018-07-27T12:26:44.882Z,998.27
2018-07-27T12:27:44.890Z,998.25
2018-07-27T12:28:44.865Z,998.21